RJDK weather

Kamigoto Airport
Kamigoto, Nagasaki Prefecture, Japan

Public forecast

Using degrees Celsius for public forecast. Weather courtesy of forecast.io.

METAR (pilot weather report)

Report is more than 6 hours old.

Closest report is Fukue Airport, 27.6 nm (51.1 km) SW. Retrieved 2019/09/18 10:00 UTC (9 hours ago):

RJFE 181000Z 01017KT CAVOK 24/16 Q1012

TAF (pilot weather forecast)

Closest forecast is Nagasaki Airport, 36.8 nm (68.2 km) E. Retrieved 2019/09/18 18:28 UTC (12 minutes ago):

TAF RJFU 181705Z 1818/2000 02012KT 9999 FEW020 BECMG 1915/1918 08005KT